Time;durP1;ratioP1;P1;durP2;ratioP2;P2;SDS_P1;SDS_P2;PMS_P1;PMS_P2;Temp;Humidity;BMP_temperature;BMP_pressure;BME280_temperature;BME280_humidity;BME280_pressure;Samples;Min_cycle;Max_cycle;Signal;HPM_P1;HPM_P2
2020/12/20 00:01:41;;;;;;;30.35;20.45;;;7.10;91.80;;;;;;4981636;28;20113;-57
2020/12/20 00:04:07;;;;;;;27.38;20.55;;;7.10;91.80;;;;;;4983196;28;20089;-59
2020/12/20 00:06:37;;;;;;;25.40;18.95;;;7.10;91.90;;;;;;4986626;28;20056;-56
2020/12/20 00:09:10;;;;;;;28.25;21.90;;;7.10;91.90;;;;;;4989630;28;20166;-59
2020/12/20 00:11:44;;;;;;;23.50;19.52;;;7.10;91.80;;;;;;4980612;28;20541;-57
2020/12/20 00:14:28;;;;;;;31.23;21.08;;;7.10;91.80;;;;;;4988749;28;20031;-58
2020/12/20 00:16:54;;;;;;;28.65;19.95;;;7.10;91.90;;;;;;4986960;28;20031;-56
2020/12/20 00:19:19;;;;;;;30.27;20.90;;;7.10;91.90;;;;;;4989533;28;20068;-59
2020/12/20 00:21:45;;;;;;;27.45;20.73;;;7.10;91.90;;;;;;4987366;28;20045;-56
2020/12/20 00:24:10;;;;;;;28.27;20.83;;;7.10;91.90;;;;;;4988476;28;20035;-57
2020/12/20 00:26:36;;;;;;;29.90;20.35;;;7.10;92.20;;;;;;4985404;28;20651;-58
2020/12/20 00:29:03;;;;;;;28.52;20.83;;;7.10;91.90;;;;;;4982259;28;20034;-56
2020/12/20 00:31:29;;;;;;;23.92;20.15;;;7.10;91.90;;;;;;4983852;28;20023;-58
2020/12/20 00:33:54;;;;;;;28.63;19.50;;;7.10;91.90;;;;;;4988478;28;20073;-56
2020/12/20 00:36:20;;;;;;;27.63;20.40;;;7.10;91.90;;;;;;4987698;28;20034;-58
2020/12/20 00:38:45;;;;;;;28.60;20.75;;;7.10;91.90;;;;;;4988122;28;20035;-59
2020/12/20 00:41:11;;;;;;;27.45;18.83;;;7.10;91.90;;;;;;4987553;28;20045;-58
2020/12/20 00:43:36;;;;;;;24.40;18.73;;;7.10;91.90;;;;;;4992103;28;20423;-57
2020/12/20 00:46:02;;;;;;;29.58;20.45;;;7.10;91.90;;;;;;4993110;28;20300;-58
2020/12/20 00:48:27;;;;;;;26.20;19.48;;;7.10;91.90;;;;;;4991681;28;20039;-56
2020/12/20 00:50:53;;;;;;;27.65;20.33;;;7.10;91.80;;;;;;4991506;28;20505;-57
2020/12/20 00:53:18;;;;;;;25.00;19.77;;;7.10;91.90;;;;;;4991033;28;20046;-56
2020/12/20 00:55:44;;;;;;;24.70;19.42;;;7.10;91.90;;;;;;4988746;28;20030;-57
2020/12/20 00:58:09;;;;;;;27.38;19.90;;;7.10;91.90;;;;;;4984445;28;20034;-56
2020/12/20 01:00:35;;;;;;;27.70;20.23;;;7.10;91.90;;;;;;4982637;28;20491;-59
2020/12/20 01:03:00;;;;;;;27.70;20.10;;;7.10;91.80;;;;;;4987765;28;20180;-58
2020/12/20 01:05:26;;;;;;;28.00;19.90;;;7.10;91.90;;;;;;4983309;28;20041;-56
2020/12/20 01:07:51;;;;;;;24.95;20.00;;;7.10;91.90;;;;;;4989367;28;20039;-57
2020/12/20 01:10:17;;;;;;;25.63;18.67;;;7.10;91.90;;;;;;4990009;28;20367;-58
2020/12/20 01:12:42;;;;;;;24.17;18.05;;;7.10;91.80;;;;;;4989370;28;20038;-58
2020/12/20 01:15:08;;;;;;;24.38;18.25;;;7.10;91.90;;;;;;4992534;28;20030;-57
2020/12/20 01:17:36;;;;;;;25.33;18.48;;;7.00;92.10;;;;;;4990112;28;20034;-57
2020/12/20 01:20:01;;;;;;;26.30;19.52;;;7.00;91.80;;;;;;4985859;28;20118;-58
2020/12/20 01:22:27;;;;;;;23.60;18.27;;;7.00;91.90;;;;;;4973247;28;20586;-56
2020/12/20 01:24:52;;;;;;;27.23;19.40;;;7.00;91.90;;;;;;4986417;28;20042;-58
2020/12/20 01:27:18;;;;;;;26.13;18.33;;;7.00;91.90;;;;;;4990988;28;20038;-58
2020/12/20 01:29:43;;;;;;;25.05;18.73;;;7.10;91.90;;;;;;4987346;28;20045;-59
2020/12/20 01:32:09;;;;;;;24.52;18.30;;;7.00;91.80;;;;;;4986818;28;20480;-57
2020/12/20 01:34:34;;;;;;;25.63;19.70;;;7.00;91.80;;;;;;4982530;28;20056;-57
2020/12/20 01:37:00;;;;;;;22.35;17.15;;;7.00;91.80;;;;;;4992113;28;20035;-57
2020/12/20 01:39:25;;;;;;;23.13;17.27;;;7.00;91.90;;;;;;4984247;28;20497;-58
2020/12/20 01:41:52;;;;;;;22.58;17.75;;;7.00;91.90;;;;;;4986619;28;20057;-56
2020/12/20 01:44:17;;;;;;;25.13;17.52;;;7.00;91.80;;;;;;4983153;28;20406;-57
2020/12/20 01:46:43;;;;;;;23.10;17.58;;;7.00;91.80;;;;;;4986372;28;20049;-57
2020/12/20 01:49:09;;;;;;;26.05;19.17;;;7.00;91.80;;;;;;4983536;28;20037;-58
2020/12/20 01:51:35;;;;;;;21.58;17.00;;;7.00;91.80;;;;;;4982571;28;20156;-59
2020/12/20 01:54:00;;;;;;;22.85;17.40;;;7.00;91.80;;;;;;4985273;28;20113;-56
2020/12/20 01:56:26;;;;;;;23.02;17.15;;;7.00;91.80;;;;;;4989584;28;20255;-57
2020/12/20 01:58:51;;;;;;;23.20;17.83;;;7.00;91.80;;;;;;4980623;28;20529;-58
2020/12/20 02:01:17;;;;;;;22.60;17.75;;;7.00;91.80;;;;;;4990524;28;20031;-58
2020/12/20 02:03:42;;;;;;;19.55;16.23;;;7.00;91.80;;;;;;4979715;28;20031;-57
2020/12/20 02:06:12;;;;;;;22.42;17.20;;;7.00;91.80;;;;;;4973849;28;20073;-57
2020/12/20 02:08:37;;;;;;;23.60;17.17;;;7.00;91.80;;;;;;4988182;28;20070;-61
2020/12/20 02:11:10;;;;;;;23.25;17.95;;;7.00;91.80;;;;;;4986220;28;20109;-57
2020/12/20 02:13:39;;;;;;;24.23;17.25;;;7.00;91.80;;;;;;4976707;28;20062;-59
2020/12/20 02:16:05;;;;;;;21.98;17.15;;;7.00;91.80;;;;;;5004245;28;20034;-56
2020/12/20 02:18:30;;;;;;;22.42;17.20;;;7.00;91.80;;;;;;4986228;28;21221;-59
2020/12/20 02:20:56;;;;;;;25.70;18.50;;;6.90;91.80;;;;;;4989451;28;20031;-56
2020/12/20 02:23:22;;;;;;;25.85;17.40;;;6.90;91.80;;;;;;4965481;28;20082;-58
2020/12/20 02:25:51;;;;;;;24.33;17.67;;;6.90;91.80;;;;;;4985886;28;20069;-57
2020/12/20 02:28:17;;;;;;;23.23;17.83;;;6.90;91.80;;;;;;4993332;28;20031;-59
2020/12/20 02:30:43;;;;;;;22.38;17.83;;;6.90;91.80;;;;;;4986960;28;20406;-57
2020/12/20 02:33:08;;;;;;;22.35;17.33;;;6.90;91.80;;;;;;4984533;28;20033;-58
2020/12/20 02:35:34;;;;;;;25.33;18.02;;;6.90;91.80;;;;;;4987691;28;20049;-57
2020/12/20 02:37:59;;;;;;;25.13;16.92;;;6.90;91.90;;;;;;4986048;28;20026;-59
2020/12/20 02:40:25;;;;;;;21.77;17.38;;;6.90;91.90;;;;;;4982490;28;20062;-56
2020/12/20 02:42:50;;;;;;;21.90;16.73;;;6.90;91.90;;;;;;4990331;28;20600;-56
2020/12/20 02:45:16;;;;;;;24.10;17.95;;;6.90;91.90;;;;;;4989453;28;20061;-59
2020/12/20 02:47:41;;;;;;;19.25;15.52;;;6.90;91.90;;;;;;4991533;28;20026;-60
2020/12/20 02:50:07;;;;;;;27.30;17.27;;;6.90;91.90;;;;;;4985490;28;20042;-58
2020/12/20 02:52:32;;;;;;;21.77;16.95;;;6.90;91.90;;;;;;4983348;28;20031;-57
2020/12/20 02:54:58;;;;;;;21.55;17.33;;;6.90;91.90;;;;;;4977107;28;20039;-58
2020/12/20 02:57:23;;;;;;;22.35;17.17;;;6.90;91.90;;;;;;4984437;28;20062;-58
2020/12/20 02:59:49;;;;;;;20.95;17.55;;;6.80;91.90;;;;;;4967134;28;20482;-57
2020/12/20 03:02:14;;;;;;;21.00;16.73;;;6.90;91.90;;;;;;4982772;28;20495;-59
2020/12/20 03:04:40;;;;;;;20.77;16.50;;;6.90;91.90;;;;;;4980924;28;20050;-59
2020/12/20 03:07:05;;;;;;;22.88;16.45;;;6.90;91.90;;;;;;4989969;28;20037;-58
2020/12/20 03:09:31;;;;;;;23.48;17.00;;;6.90;91.90;;;;;;4988173;28;20034;-57
2020/12/20 03:11:56;;;;;;;21.35;16.02;;;6.90;91.90;;;;;;4978490;28;20151;-57
2020/12/20 03:14:22;;;;;;;23.25;16.50;;;6.80;91.90;;;;;;4987777;28;20046;-58
2020/12/20 03:16:47;;;;;;;24.55;16.58;;;6.80;91.90;;;;;;4986276;28;20529;-59
2020/12/20 03:19:13;;;;;;;21.77;16.60;;;6.80;91.90;;;;;;4986250;28;20034;-58
2020/12/20 03:21:38;;;;;;;22.20;16.63;;;6.80;91.90;;;;;;4989366;28;20041;-58
2020/12/20 03:24:04;;;;;;;21.90;17.38;;;6.80;91.90;;;;;;4982906;28;20198;-56
2020/12/20 03:26:29;;;;;;;21.67;16.65;;;6.80;91.90;;;;;;4979422;28;20378;-59
2020/12/20 03:28:55;;;;;;;24.67;17.05;;;6.80;91.90;;;;;;4987321;28;20478;-58
2020/12/20 03:31:23;;;;;;;21.90;16.95;;;6.80;91.90;;;;;;4979293;28;20046;-56
2020/12/20 03:33:48;;;;;;;22.48;17.00;;;6.80;91.90;;;;;;4988080;28;20021;-59
2020/12/20 03:36:14;;;;;;;22.83;16.90;;;6.80;91.90;;;;;;4986927;28;20438;-57
2020/12/20 03:38:39;;;;;;;22.33;16.98;;;6.80;91.90;;;;;;4981720;28;20026;-57
2020/12/20 03:41:05;;;;;;;22.98;17.48;;;6.80;91.90;;;;;;4980503;28;20104;-58
2020/12/20 03:43:30;;;;;;;21.90;16.80;;;6.80;91.90;;;;;;4985098;28;20118;-56
2020/12/20 03:45:58;;;;;;;22.45;16.75;;;6.80;91.90;;;;;;4982647;28;20407;-56
2020/12/20 03:48:24;;;;;;;24.25;18.27;;;6.80;91.80;;;;;;4980131;28;20111;-58
2020/12/20 03:50:49;;;;;;;22.52;17.35;;;6.80;91.90;;;;;;4983360;28;20111;-58
2020/12/20 03:53:15;;;;;;;20.10;15.55;;;6.80;91.80;;;;;;4986131;28;20035;-57
2020/12/20 03:55:40;;;;;;;24.00;17.17;;;6.80;91.90;;;;;;4988073;28;20486;-58
2020/12/20 03:58:06;;;;;;;22.60;16.75;;;6.80;91.90;;;;;;4971083;28;20386;-58
2020/12/20 04:00:31;;;;;;;20.25;15.82;;;6.80;91.90;;;;;;4983359;28;20034;-58
2020/12/20 04:02:57;;;;;;;19.85;15.80;;;6.80;91.90;;;;;;4982482;28;20038;-58
2020/12/20 04:05:22;;;;;;;19.80;16.08;;;6.80;91.90;;;;;;4983553;28;20023;-55
2020/12/20 04:07:47;;;;;;;22.55;16.67;;;6.80;91.90;;;;;;4988192;28;20085;-57
2020/12/20 04:10:15;;;;;;;22.77;16.42;;;6.80;91.90;;;;;;4980696;28;20634;-57
2020/12/20 04:12:40;;;;;;;22.63;17.27;;;6.80;91.90;;;;;;4983821;28;20026;-56
2020/12/20 04:15:06;;;;;;;22.73;16.38;;;6.80;91.90;;;;;;4981255;28;20038;-55
2020/12/20 04:17:31;;;;;;;22.20;17.05;;;6.80;91.90;;;;;;4985481;28;20029;-58
2020/12/20 04:19:57;;;;;;;21.80;16.05;;;6.80;92.20;;;;;;4988918;28;20101;-58
2020/12/20 04:22:22;;;;;;;20.50;15.95;;;6.80;91.90;;;;;;4981782;28;20441;-56
2020/12/20 04:24:48;;;;;;;20.23;15.30;;;6.80;91.90;;;;;;4984219;28;20026;-58
2020/12/20 04:27:13;;;;;;;22.75;16.30;;;6.80;91.90;;;;;;4981752;28;20059;-58
2020/12/20 04:29:39;;;;;;;22.50;16.10;;;6.80;91.90;;;;;;4978225;28;20085;-57
2020/12/20 04:32:05;;;;;;;23.75;17.25;;;6.80;91.90;;;;;;4993068;28;20556;-57
2020/12/20 04:34:31;;;;;;;22.85;16.75;;;6.80;91.80;;;;;;4991372;28;20045;-58
2020/12/20 04:36:56;;;;;;;21.67;15.82;;;6.80;91.90;;;;;;4987120;28;20034;-56
2020/12/20 04:39:22;;;;;;;21.77;16.73;;;6.80;91.90;;;;;;4986159;28;20422;-56
2020/12/20 04:41:47;;;;;;;18.15;15.50;;;6.80;91.90;;;;;;4992519;28;20038;-58
2020/12/20 04:44:13;;;;;;;22.40;15.65;;;6.80;91.90;;;;;;4989514;28;20412;-56
2020/12/20 04:46:38;;;;;;;20.70;16.02;;;6.80;91.90;;;;;;4991704;28;20612;-57
2020/12/20 04:49:04;;;;;;;19.67;15.68;;;6.80;91.90;;;;;;4966402;28;20364;-57
2020/12/20 04:51:29;;;;;;;19.08;15.75;;;6.80;91.90;;;;;;4987913;28;20030;-57
2020/12/20 04:53:57;;;;;;;19.08;15.45;;;6.80;91.90;;;;;;4959176;28;20031;-58
2020/12/20 04:56:22;;;;;;;22.05;16.08;;;6.80;91.90;;;;;;4974096;28;20057;-59
2020/12/20 04:58:48;;;;;;;21.05;16.23;;;6.80;91.90;;;;;;4993399;28;20022;-55
2020/12/20 05:01:13;;;;;;;20.77;16.00;;;6.70;91.90;;;;;;4982201;28;20062;-59
2020/12/20 05:03:39;;;;;;;22.15;16.55;;;6.80;91.90;;;;;;4976684;28;20023;-58
2020/12/20 05:06:04;;;;;;;20.52;15.73;;;6.80;91.90;;;;;;4986605;28;20026;-56
2020/12/20 05:08:30;;;;;;;20.45;15.95;;;6.80;91.90;;;;;;4988484;28;20480;-57
2020/12/20 05:10:56;;;;;;;19.08;15.23;;;6.80;91.90;;;;;;4991595;28;20039;-55
2020/12/20 05:13:22;;;;;;;20.30;15.18;;;6.80;91.90;;;;;;4967768;28;20030;-56
2020/12/20 05:15:48;;;;;;;19.58;15.23;;;6.70;91.90;;;;;;4990842;28;20403;-57
2020/12/20 05:18:14;;;;;;;20.88;15.82;;;6.80;91.90;;;;;;4981344;28;20030;-58
2020/12/20 05:20:44;;;;;;;18.98;16.17;;;6.70;91.90;;;;;;4969825;28;20041;-55
2020/12/20 05:23:10;;;;;;;22.08;15.85;;;6.80;91.90;;;;;;5007370;28;20324;-57
2020/12/20 05:25:36;;;;;;;20.73;15.82;;;6.70;91.90;;;;;;4990362;28;20065;-64
2020/12/20 05:28:18;;;;;;;20.88;15.30;;;6.70;91.90;;;;;;4983952;28;20552;-56
2020/12/20 05:30:44;;;;;;;20.33;15.63;;;6.70;91.90;;;;;;4987985;28;20194;-57
2020/12/20 05:33:22;;;;;;;19.98;15.48;;;6.80;91.90;;;;;;4985873;28;20034;-56
2020/12/20 05:35:55;;;;;;;19.48;15.50;;;6.70;91.90;;;;;;4982554;28;20080;-57
2020/12/20 05:38:21;;;;;;;20.50;15.32;;;6.70;91.90;;;;;;4989401;28;20126;-56
2020/12/20 05:40:46;;;;;;;17.80;15.30;;;6.70;91.90;;;;;;4976965;28;20570;-56
2020/12/20 05:43:14;;;;;;;19.33;15.73;;;6.70;91.90;;;;;;4984700;28;20468;-56
2020/12/20 05:45:39;;;;;;;20.42;15.13;;;6.70;91.90;;;;;;4985426;28;20118;-56
2020/12/20 05:48:15;;;;;;;20.02;15.40;;;6.70;91.90;;;;;;4986144;28;20113;-57
2020/12/20 05:50:47;;;;;;;;;;;6.70;91.90;;;;;;4974673;28;20054;-58
2020/12/20 05:53:13;;;;;;;21.13;15.00;;;6.70;91.90;;;;;;4988456;28;19910;-56
2020/12/20 05:55:39;;;;;;;18.10;14.50;;;6.70;91.90;;;;;;4983836;28;20617;-56
2020/12/20 05:58:11;;;;;;;20.13;15.15;;;6.70;91.90;;;;;;4984439;28;20027;-57
2020/12/20 06:00:38;;;;;;;19.20;14.63;;;6.70;91.90;;;;;;4980876;28;20035;-56
2020/12/20 06:03:04;;;;;;;21.50;15.60;;;6.70;91.90;;;;;;4990965;28;20027;-58
2020/12/20 06:05:32;;;;;;;21.52;15.68;;;6.70;91.90;;;;;;4985529;28;20031;-58
2020/12/20 06:08:02;;;;;;;19.08;15.35;;;6.70;91.90;;;;;;4956071;28;20242;-58
2020/12/20 06:10:29;;;;;;;18.13;14.60;;;6.70;91.90;;;;;;4989786;28;20305;-57
2020/12/20 06:12:55;;;;;;;18.63;14.13;;;6.70;91.90;;;;;;4974023;28;20031;-56
2020/12/20 06:15:20;;;;;;;19.73;15.13;;;6.70;91.90;;;;;;4974663;28;20033;-58
2020/12/20 06:17:46;;;;;;;18.20;14.82;;;6.70;91.90;;;;;;4973738;28;20085;-56
2020/12/20 06:20:19;;;;;;;18.67;14.93;;;6.70;91.90;;;;;;4972166;28;20671;-59
2020/12/20 06:22:46;;;;;;;19.33;15.00;;;6.70;91.90;;;;;;4970182;28;20109;-58
2020/12/20 06:25:12;;;;;;;19.02;14.82;;;6.70;91.90;;;;;;4973845;28;20162;-57
2020/12/20 06:27:37;;;;;;;19.38;15.07;;;6.70;91.90;;;;;;4974079;28;20166;-57
2020/12/20 06:30:06;;;;;;;20.05;15.15;;;6.70;91.90;;;;;;4965405;28;20085;-56
2020/12/20 06:32:39;;;;;;;18.42;14.32;;;6.70;91.90;;;;;;4989105;28;20045;-58
2020/12/20 06:35:13;;;;;;;19.17;14.77;;;6.70;91.90;;;;;;4987874;28;20026;-56
2020/12/20 06:37:41;;;;;;;18.15;14.93;;;6.70;91.90;;;;;;4988816;28;20026;-58
2020/12/20 06:40:07;;;;;;;19.48;15.35;;;6.70;91.90;;;;;;4990327;28;20557;-55
2020/12/20 06:42:35;;;;;;;17.85;15.05;;;6.70;91.90;;;;;;4989293;28;20069;-57
2020/12/20 06:45:11;;;;;;;19.50;14.93;;;6.70;91.90;;;;;;4981569;28;20490;-56
2020/12/20 06:47:39;;;;;;;;;;;6.70;91.90;;;;;;4985568;28;20105;-57
2020/12/20 06:50:05;;;;;;;17.55;14.05;;;6.70;91.90;;;;;;4979623;28;19914;-57
2020/12/20 06:52:31;;;;;;;16.90;13.85;;;6.70;91.90;;;;;;4986860;28;20030;-57
2020/12/20 06:55:03;;;;;;;17.75;13.48;;;6.70;91.90;;;;;;4986858;28;20042;-55
2020/12/20 06:57:28;;;;;;;17.85;14.75;;;6.70;92.00;;;;;;4985499;28;20042;-56
2020/12/20 06:59:54;;;;;;;18.50;14.70;;;6.70;91.90;;;;;;4969300;28;20388;-57
2020/12/20 07:02:45;;;;;;;20.80;16.08;;;6.70;91.90;;;;;;4984296;28;20474;-59
2020/12/20 07:05:32;;;;;;;19.33;14.73;;;6.60;91.90;;;;;;4989087;28;20029;-58
2020/12/20 07:08:14;;;;;;;20.42;14.73;;;6.70;92.00;;;;;;4988552;28;20375;-56
2020/12/20 07:11:08;;;;;;;17.88;14.25;;;6.70;92.00;;;;;;4988999;28;20030;-58
2020/12/20 07:13:40;;;;;;;19.52;15.07;;;6.70;92.00;;;;;;4974816;28;20041;-56
2020/12/20 07:16:07;;;;;;;18.08;14.85;;;6.70;91.90;;;;;;4989378;28;20022;-56
2020/12/20 07:18:43;;;;;;;19.02;14.65;;;6.70;92.00;;;;;;4990188;28;20039;-56
2020/12/20 07:21:32;;;;;;;;;;;6.60;91.90;;;;;;4989005;28;20071;-58
2020/12/20 07:24:05;;;;;;;19.67;14.15;;;6.70;91.90;;;;;;4983911;28;20346;-56
2020/12/20 07:26:33;;;;;;;18.38;14.38;;;6.70;92.00;;;;;;4986977;28;20038;-57
2020/12/20 07:29:02;;;;;;;20.27;15.20;;;6.70;92.00;;;;;;4990115;28;20033;-56
2020/12/20 07:31:28;;;;;;;18.27;14.20;;;6.70;91.90;;;;;;4985166;28;20684;-58
2020/12/20 07:33:54;;;;;;;19.67;14.35;;;6.70;92.00;;;;;;4990198;28;20297;-59
2020/12/20 07:36:23;;;;;;;18.80;14.02;;;6.70;92.00;;;;;;4988236;28;20054;-64
2020/12/20 07:38:49;;;;;;;18.42;14.95;;;6.70;92.00;;;;;;4988496;28;20034;-57
2020/12/20 07:41:16;;;;;;;19.40;15.25;;;6.70;92.00;;;;;;4988494;28;20356;-57
2020/12/20 07:43:47;;;;;;;17.17;13.50;;;6.60;91.90;;;;;;4982539;28;20090;-57
2020/12/20 07:46:13;;;;;;;17.90;14.35;;;6.70;92.00;;;;;;4981285;28;20505;-59
2020/12/20 07:48:39;;;;;;;18.30;15.27;;;6.70;91.90;;;;;;4989286;28;20034;-56
2020/12/20 07:51:21;;;;;;;18.17;15.00;;;6.70;92.00;;;;;;4985377;28;20125;-57
2020/12/20 07:53:54;;;;;;;19.27;14.00;;;6.70;92.00;;;;;;4958276;28;20077;-56
2020/12/20 07:56:25;;;;;;;17.67;14.00;;;6.70;92.00;;;;;;4989814;28;20037;-55
2020/12/20 07:58:52;;;;;;;16.17;13.30;;;6.70;91.90;;;;;;4985524;28;20130;-57
2020/12/20 08:01:18;;;;;;;17.48;14.18;;;6.70;91.90;;;;;;4985376;28;20485;-56
2020/12/20 08:03:43;;;;;;;17.77;13.50;;;6.70;91.90;;;;;;4982739;28;20155;-58
2020/12/20 08:06:09;;;;;;;17.30;13.90;;;6.70;91.90;;;;;;4985473;28;20030;-58
2020/12/20 08:08:36;;;;;;;21.20;16.13;;;6.70;92.00;;;;;;4984805;28;20026;-58
2020/12/20 08:11:03;;;;;;;18.92;14.98;;;6.70;91.90;;;;;;4967277;28;20044;-58
2020/12/20 08:13:29;;;;;;;20.83;15.60;;;6.70;92.00;;;;;;4985125;28;20108;-57
2020/12/20 08:15:55;;;;;;;20.08;15.40;;;6.70;92.00;;;;;;4983878;28;20034;-57
2020/12/20 08:18:20;;;;;;;22.20;15.60;;;6.70;92.00;;;;;;4982188;28;20042;-58
2020/12/20 08:20:46;;;;;;;20.88;15.60;;;6.70;92.00;;;;;;4985990;28;20503;-56
2020/12/20 08:23:11;;;;;;;19.45;15.93;;;6.70;92.00;;;;;;4984214;28;20049;-58
2020/12/20 08:25:37;;;;;;;22.55;16.70;;;6.60;92.00;;;;;;4987185;28;20049;-57
2020/12/20 08:28:02;;;;;;;19.83;15.38;;;6.70;92.00;;;;;;4983290;28;20030;-57
2020/12/20 08:30:28;;;;;;;23.73;16.50;;;6.60;92.00;;;;;;4983281;28;20290;-58
2020/12/20 08:32:53;;;;;;;20.77;16.38;;;6.70;92.00;;;;;;4980335;28;20055;-56
2020/12/20 08:35:22;;;;;;;21.70;16.85;;;6.70;92.00;;;;;;4984550;28;20033;-58
2020/12/20 08:37:54;;;;;;;18.98;15.20;;;6.70;92.00;;;;;;4983883;28;20026;-56
2020/12/20 08:40:20;;;;;;;19.75;15.90;;;6.30;91.90;;;;;;4971082;28;20077;-58
2020/12/20 08:42:51;;;;;;;21.33;15.63;;;6.60;92.00;;;;;;4982367;28;20043;-58
2020/12/20 08:45:21;;;;;;;18.48;15.15;;;6.60;92.00;;;;;;4981552;28;20034;-57
2020/12/20 08:47:46;;;;;;;19.45;16.42;;;6.60;92.00;;;;;;4974356;28;20026;-58
2020/12/20 08:50:13;;;;;;;21.85;16.40;;;6.60;92.00;;;;;;4981692;28;20030;-56
2020/12/20 08:52:38;;;;;;;19.63;15.48;;;6.60;92.00;;;;;;4970557;28;20437;-59
2020/12/20 08:55:05;;;;;;;17.75;15.57;;;6.60;92.00;;;;;;4977470;28;20030;-58
2020/12/20 08:57:32;;;;;;;20.33;17.13;;;6.60;92.00;;;;;;4988121;28;20057;-56
2020/12/20 09:00:11;;;;;;;20.83;16.55;;;6.60;92.00;;;;;;4983710;28;20077;-57
2020/12/20 09:02:36;;;;;;;22.48;17.13;;;6.60;92.00;;;;;;5006540;28;20037;-57
2020/12/20 09:05:04;;;;;;;22.27;17.20;;;6.60;92.00;;;;;;4986316;28;20027;-56
2020/12/20 09:07:37;;;;;;;22.52;17.85;;;6.60;92.00;;;;;;4985862;28;20537;-56
2020/12/20 09:10:03;;;;;;;21.80;17.10;;;6.60;92.00;;;;;;4988239;28;20427;-56
2020/12/20 09:12:29;;;;;;;21.55;16.75;;;6.60;92.00;;;;;;4988983;28;20533;-57
2020/12/20 09:15:03;;;;;;;19.73;16.05;;;6.60;92.00;;;;;;4985532;28;20030;-57
2020/12/20 09:17:39;;;;;;;22.85;18.10;;;6.60;92.00;;;;;;4988397;28;20018;-58
2020/12/20 09:20:09;;;;;;;20.58;16.95;;;6.60;92.00;;;;;;4974462;28;20026;-57
2020/12/20 09:23:01;;;;;;;19.55;15.95;;;6.60;92.00;;;;;;4992235;28;20040;-57
2020/12/20 09:25:32;;;;;;;20.65;16.98;;;6.60;92.00;;;;;;4984826;28;20172;-56
2020/12/20 09:27:59;;;;;;;23.05;17.45;;;6.60;92.00;;;;;;4980277;28;20026;-57
2020/12/20 09:30:39;;;;;;;20.05;15.98;;;6.60;92.30;;;;;;4975122;28;20065;-57
2020/12/20 09:33:36;;;;;;;22.15;16.92;;;6.70;92.00;;;;;;4991020;28;20034;-57
2020/12/20 09:36:12;;;;;;;21.17;16.85;;;6.70;91.90;;;;;;4977609;28;20050;-57
2020/12/20 09:38:44;;;;;;;19.33;14.98;;;6.70;91.90;;;;;;5005525;28;20030;-56
2020/12/20 09:41:11;;;;;;;20.25;15.70;;;6.70;91.90;;;;;;4990848;28;20030;-57
2020/12/20 09:43:37;;;;;;;23.23;17.30;;;6.70;91.90;;;;;;4987450;28;20053;-56
2020/12/20 09:46:03;;;;;;;21.65;16.73;;;6.70;92.10;;;;;;4989982;28;20035;-58
2020/12/20 09:48:28;;;;;;;21.65;16.77;;;6.70;91.80;;;;;;4973408;28;20022;-58
2020/12/20 09:50:54;;;;;;;21.02;16.15;;;6.70;91.90;;;;;;4986193;28;20490;-58
2020/12/20 09:53:20;;;;;;;21.52;17.00;;;6.70;91.90;;;;;;4984253;28;20111;-58
2020/12/20 09:55:45;;;;;;;22.05;16.48;;;6.70;91.80;;;;;;4984601;28;20271;-56
2020/12/20 09:58:12;;;;;;;22.27;16.30;;;6.70;91.80;;;;;;4986440;28;20104;-60
2020/12/20 10:00:37;;;;;;;20.80;16.90;;;6.70;91.80;;;;;;4988262;28;20057;-57
2020/12/20 10:03:03;;;;;;;20.90;15.55;;;6.70;91.80;;;;;;5001105;28;20110;-58
2020/12/20 10:05:29;;;;;;;19.63;16.50;;;6.70;91.80;;;;;;4984845;28;20085;-58
2020/12/20 10:07:54;;;;;;;21.58;16.80;;;6.70;91.80;;;;;;4986129;28;20038;-58
2020/12/20 10:10:20;;;;;;;20.23;15.82;;;6.70;91.80;;;;;;4971201;28;20054;-57
2020/12/20 10:12:45;;;;;;;20.27;14.70;;;6.80;91.70;;;;;;4978646;28;20102;-56
2020/12/20 10:15:11;;;;;;;18.10;15.25;;;6.80;91.70;;;;;;4975633;28;20043;-59
2020/12/20 10:17:37;;;;;;;20.15;16.42;;;6.80;91.70;;;;;;4986415;28;20409;-58
2020/12/20 10:20:03;;;;;;;20.02;16.10;;;6.80;91.70;;;;;;4977644;28;20041;-58
2020/12/20 10:22:29;;;;;;;18.95;14.93;;;6.90;91.60;;;;;;4978062;28;20034;-58
2020/12/20 10:24:54;;;;;;;18.25;15.57;;;6.90;91.60;;;;;;4977455;28;20031;-57
2020/12/20 10:27:20;;;;;;;19.75;15.88;;;6.90;91.60;;;;;;4972943;28;20474;-56
2020/12/20 10:29:46;;;;;;;21.25;15.25;;;6.90;91.60;;;;;;4981491;28;20113;-61
2020/12/20 10:32:11;;;;;;;18.83;15.30;;;6.90;91.60;;;;;;4980181;28;20034;-58
2020/12/20 10:34:37;;;;;;;19.33;16.45;;;6.90;91.60;;;;;;4988539;28;20092;-57
2020/12/20 10:37:02;;;;;;;21.50;14.73;;;7.00;91.60;;;;;;4987282;28;20126;-58
2020/12/20 10:39:28;;;;;;;23.45;15.90;;;7.00;91.60;;;;;;4977908;28;20058;-56
2020/12/20 10:41:54;;;;;;;21.42;14.90;;;7.00;91.60;;;;;;4978839;28;20556;-57
2020/12/20 10:44:22;;;;;;;20.48;15.27;;;7.00;91.60;;;;;;4989113;28;20049;-58
2020/12/20 10:46:51;;;;;;;20.33;16.15;;;7.00;91.60;;;;;;4986414;28;20066;-56
2020/12/20 10:49:17;;;;;;;20.25;14.63;;;7.10;91.60;;;;;;4989210;28;20030;-56
2020/12/20 10:51:43;;;;;;;21.38;16.17;;;7.00;91.50;;;;;;4983015;28;20027;-57
2020/12/20 10:54:09;;;;;;;29.60;15.55;;;7.00;91.50;;;;;;4979123;28;20113;-55
2020/12/20 10:56:34;;;;;;;23.25;15.43;;;7.10;91.50;;;;;;4986693;28;20594;-57
2020/12/20 10:59:00;;;;;;;18.52;14.98;;;7.10;91.50;;;;;;4989339;28;20105;-56
2020/12/20 11:01:25;;;;;;;23.45;15.38;;;7.10;91.60;;;;;;4988051;28;20034;-58
2020/12/20 11:03:51;;;;;;;20.17;15.02;;;7.10;91.60;;;;;;4979965;28;20030;-59
2020/12/20 11:06:23;;;;;;;20.60;14.85;;;7.10;91.60;;;;;;4984253;28;20390;-58
2020/12/20 11:08:49;;;;;;;21.55;15.20;;;7.10;91.60;;;;;;4979787;28;20084;-56
2020/12/20 11:11:15;;;;;;;21.02;15.80;;;7.20;91.60;;;;;;4982706;28;20039;-58
2020/12/20 11:13:42;;;;;;;20.52;15.07;;;7.10;91.60;;;;;;4986995;28;20045;-55
2020/12/20 11:16:15;;;;;;;23.80;16.33;;;7.10;91.60;;;;;;4986273;28;20027;-59
2020/12/20 11:18:40;;;;;;;20.42;15.63;;;7.20;91.60;;;;;;4972352;28;21455;-58
2020/12/20 11:21:08;;;;;;;19.45;15.98;;;7.20;91.60;;;;;;4969274;28;20027;-58
2020/12/20 11:23:33;;;;;;;21.52;14.95;;;7.20;91.50;;;;;;4990513;28;20099;-58
2020/12/20 11:25:59;;;;;;;29.42;16.00;;;7.20;91.60;;;;;;4990486;28;20477;-58
2020/12/20 11:28:24;;;;;;;26.00;15.45;;;7.20;91.50;;;;;;4985114;28;20550;-56
2020/12/20 11:30:50;;;;;;;24.85;15.80;;;7.20;91.50;;;;;;4983965;28;20042;-56
2020/12/20 11:33:15;;;;;;;36.13;15.98;;;7.30;91.50;;;;;;4984860;28;20034;-58
2020/12/20 11:35:42;;;;;;;33.78;16.98;;;7.30;91.50;;;;;;4987635;28;20121;-56
2020/12/20 11:38:11;;;;;;;28.52;16.35;;;7.30;91.50;;;;;;4983830;28;20037;-58
2020/12/20 11:40:37;;;;;;;25.92;15.40;;;7.30;91.50;;;;;;4989486;28;20026;-57
2020/12/20 11:43:02;;;;;;;22.60;14.90;;;7.30;91.50;;;;;;4987206;28;20045;-56
2020/12/20 11:45:27;;;;;;;28.48;15.80;;;7.30;91.50;;;;;;4985528;28;20030;-60
2020/12/20 11:47:53;;;;;;;32.35;15.85;;;7.30;91.50;;;;;;4990060;28;20506;-57
2020/12/20 11:50:19;;;;;;;27.88;16.10;;;7.30;91.50;;;;;;4991222;28;20100;-57
2020/12/20 11:52:44;;;;;;;47.90;18.63;;;7.30;91.50;;;;;;4987222;28;20418;-56
2020/12/20 11:55:10;;;;;;;37.85;17.08;;;7.40;91.50;;;;;;4985986;28;20035;-55
2020/12/20 11:57:35;;;;;;;31.80;16.67;;;7.40;91.60;;;;;;4986261;28;20130;-57
2020/12/20 12:00:01;;;;;;;24.83;15.07;;;7.40;91.60;;;;;;4985145;28;20500;-57
2020/12/20 12:02:26;;;;;;;26.85;15.68;;;7.40;91.50;;;;;;4990772;28;20537;-57
2020/12/20 12:04:52;;;;;;;26.83;15.88;;;7.50;91.50;;;;;;4987947;28;20041;-58
2020/12/20 12:07:17;;;;;;;20.60;15.25;;;7.40;91.50;;;;;;4990516;28;20065;-55
2020/12/20 12:09:43;;;;;;;25.90;15.20;;;7.40;91.50;;;;;;4988936;28;20030;-56
2020/12/20 12:12:08;;;;;;;25.52;15.77;;;7.50;91.40;;;;;;4983819;28;20460;-58
2020/12/20 12:14:33;;;;;;;18.83;14.65;;;7.50;91.40;;;;;;4982995;28;20050;-58
2020/12/20 12:16:59;;;;;;;25.73;15.68;;;7.50;91.40;;;;;;4984697;28;20520;-57
2020/12/20 12:19:24;;;;;;;18.42;15.13;;;7.50;91.50;;;;;;4989438;28;21209;-59
2020/12/20 12:21:50;;;;;;;20.02;16.23;;;7.50;91.50;;;;;;4988855;28;20030;-59
2020/12/20 12:24:15;;;;;;;21.80;16.02;;;7.50;91.50;;;;;;4987125;28;20026;-58
2020/12/20 12:26:47;;;;;;;24.05;15.38;;;7.50;91.50;;;;;;4989786;28;20395;-56
2020/12/20 12:29:12;;;;;;;22.27;16.55;;;7.50;91.60;;;;;;4988241;28;20110;-58
2020/12/20 12:31:38;;;;;;;22.25;16.17;;;7.50;91.50;;;;;;4991148;28;20552;-59
2020/12/20 12:34:03;;;;;;;19.58;16.25;;;7.50;91.50;;;;;;4996283;28;20100;-57
2020/12/20 12:36:29;;;;;;;19.95;15.65;;;7.50;91.50;;;;;;4994056;28;20101;-57
2020/12/20 12:38:56;;;;;;;22.27;15.85;;;7.50;91.50;;;;;;4995048;28;20042;-57